sensor_id;sensor_type;location;lat;lon;timestamp;pressure;altitude;pressure_sealevel;temperature;humidity
75972;BME280;64651;47.540;19.088;2024-02-14T00:02:13;100926.94;;;4.92;64.98
75972;BME280;64651;47.540;19.088;2024-02-14T00:07:15;100933.81;;;4.94;65.10
75972;BME280;64651;47.540;19.088;2024-02-14T00:12:17;100937.31;;;4.83;65.29
75972;BME280;64651;47.540;19.088;2024-02-14T00:17:20;100924.66;;;4.88;65.32
75972;BME280;64651;47.540;19.088;2024-02-14T00:22:23;100928.84;;;4.73;65.71
75972;BME280;64651;47.540;19.088;2024-02-14T00:27:26;100929.00;;;4.60;65.87
75972;BME280;64651;47.540;19.088;2024-02-14T00:32:28;100946.88;;;4.56;66.15
75972;BME280;64651;47.540;19.088;2024-02-14T00:37:33;100949.37;;;4.39;66.45
75972;BME280;64651;47.540;19.088;2024-02-14T00:42:36;100949.53;;;4.62;66.05
75972;BME280;64651;47.540;19.088;2024-02-14T00:47:38;100947.47;;;4.58;65.84
75972;BME280;64651;47.540;19.088;2024-02-14T00:52:40;100960.44;;;4.62;65.80
75972;BME280;64651;47.540;19.088;2024-02-14T00:57:43;100966.63;;;4.33;66.71
75972;BME280;64651;47.540;19.088;2024-02-14T01:02:46;100962.47;;;4.67;65.49
75972;BME280;64651;47.540;19.088;2024-02-14T01:07:48;100978.53;;;4.57;65.71
75972;BME280;64651;47.540;19.088;2024-02-14T01:12:50;100975.47;;;4.46;66.03
75972;BME280;64651;47.540;19.088;2024-02-14T01:17:52;100979.34;;;4.39;66.46
75972;BME280;64651;47.540;19.088;2024-02-14T01:22:55;100968.84;;;4.18;66.96
75972;BME280;64651;47.540;19.088;2024-02-14T01:27:57;100972.53;;;4.05;67.89
75972;BME280;64651;47.540;19.088;2024-02-14T01:32:59;100969.13;;;4.09;68.11
75972;BME280;64651;47.540;19.088;2024-02-14T01:38:03;100969.53;;;4.13;68.80
75972;BME280;64651;47.540;19.088;2024-02-14T01:43:05;100976.41;;;4.16;68.87
75972;BME280;64651;47.540;19.088;2024-02-14T01:48:08;100972.34;;;4.00;69.45
75972;BME280;64651;47.540;19.088;2024-02-14T01:53:11;100970.13;;;4.15;69.03
75972;BME280;64651;47.540;19.088;2024-02-14T01:58:14;100970.38;;;3.89;69.30
75972;BME280;64651;47.540;19.088;2024-02-14T02:03:17;100976.59;;;3.96;68.86
75972;BME280;64651;47.540;19.088;2024-02-14T02:08:20;100968.63;;;3.94;68.28
75972;BME280;64651;47.540;19.088;2024-02-14T02:13:22;100984.50;;;3.97;68.24
75972;BME280;64651;47.540;19.088;2024-02-14T02:18:25;100982.09;;;4.14;67.01
75972;BME280;64651;47.540;19.088;2024-02-14T02:23:28;100998.47;;;3.83;68.14
75972;BME280;64651;47.540;19.088;2024-02-14T02:28:30;100993.25;;;3.50;69.27
75972;BME280;64651;47.540;19.088;2024-02-14T02:33:33;100983.09;;;3.32;69.71
75972;BME280;64651;47.540;19.088;2024-02-14T02:38:35;100996.72;;;3.63;68.32
75972;BME280;64651;47.540;19.088;2024-02-14T02:43:39;100989.34;;;3.39;68.90
75972;BME280;64651;47.540;19.088;2024-02-14T02:48:41;100992.94;;;3.26;69.54
75972;BME280;64651;47.540;19.088;2024-02-14T02:53:43;101010.84;;;3.03;70.96
75972;BME280;64651;47.540;19.088;2024-02-14T02:58:46;101017.38;;;2.89;71.87
75972;BME280;64651;47.540;19.088;2024-02-14T03:03:50;101020.78;;;2.64;72.86
75972;BME280;64651;47.540;19.088;2024-02-14T03:08:52;101032.47;;;2.65;73.87
75972;BME280;64651;47.540;19.088;2024-02-14T03:13:57;101031.47;;;2.53;74.26
75972;BME280;64651;47.540;19.088;2024-02-14T03:18:59;101028.72;;;2.59;73.99
75972;BME280;64651;47.540;19.088;2024-02-14T03:24:03;101056.91;;;2.78;74.29
75972;BME280;64651;47.540;19.088;2024-02-14T03:29:08;101053.81;;;2.55;74.21
75972;BME280;64651;47.540;19.088;2024-02-14T03:34:10;101060.50;;;2.32;75.35
75972;BME280;64651;47.540;19.088;2024-02-14T03:39:12;101058.84;;;2.25;75.54
75972;BME280;64651;47.540;19.088;2024-02-14T03:44:19;101070.13;;;2.48;75.79
75972;BME280;64651;47.540;19.088;2024-02-14T03:49:21;101063.56;;;2.82;74.87
75972;BME280;64651;47.540;19.088;2024-02-14T03:54:23;101083.75;;;3.19;74.09
75972;BME280;64651;47.540;19.088;2024-02-14T03:59:25;101072.59;;;3.40;73.68
75972;BME280;64651;47.540;19.088;2024-02-14T04:04:28;101093.34;;;3.35;73.82
75972;BME280;64651;47.540;19.088;2024-02-14T04:09:33;101100.50;;;3.22;74.77
75972;BME280;64651;47.540;19.088;2024-02-14T04:14:35;101106.34;;;3.19;75.54
75972;BME280;64651;47.540;19.088;2024-02-14T04:19:37;101104.28;;;3.15;75.54
75972;BME280;64651;47.540;19.088;2024-02-14T04:24:40;101108.72;;;2.90;76.02
75972;BME280;64651;47.540;19.088;2024-02-14T04:29:46;101125.88;;;2.83;76.69
75972;BME280;64651;47.540;19.088;2024-02-14T04:34:48;101136.94;;;2.69;77.14
75972;BME280;64651;47.540;19.088;2024-02-14T04:39:51;101134.03;;;2.70;77.61
75972;BME280;64651;47.540;19.088;2024-02-14T04:44:54;101135.69;;;2.52;78.35
75972;BME280;64651;47.540;19.088;2024-02-14T04:49:56;101130.50;;;2.43;79.12
75972;BME280;64651;47.540;19.088;2024-02-14T04:54:58;101141.34;;;2.37;79.16
75972;BME280;64651;47.540;19.088;2024-02-14T05:00:01;101150.75;;;2.41;79.69
75972;BME280;64651;47.540;19.088;2024-02-14T05:05:03;101144.88;;;2.18;80.29
75972;BME280;64651;47.540;19.088;2024-02-14T05:10:06;101155.50;;;1.99;81.10
75972;BME280;64651;47.540;19.088;2024-02-14T05:15:09;101153.94;;;1.77;82.07
75972;BME280;64651;47.540;19.088;2024-02-14T05:20:11;101166.97;;;2.08;82.28
75972;BME280;64651;47.540;19.088;2024-02-14T05:25:14;101168.63;;;2.02;82.38
75972;BME280;64651;47.540;19.088;2024-02-14T05:30:16;101163.75;;;1.78;82.72
75972;BME280;64651;47.540;19.088;2024-02-14T05:35:19;101176.50;;;1.84;83.29
75972;BME280;64651;47.540;19.088;2024-02-14T05:40:22;101182.87;;;2.18;82.32
75972;BME280;64651;47.540;19.088;2024-02-14T05:45:24;101194.09;;;1.95;82.50
75972;BME280;64651;47.540;19.088;2024-02-14T05:50:27;101196.97;;;1.87;83.00
75972;BME280;64651;47.540;19.088;2024-02-14T05:55:29;101201.66;;;1.58;83.75
75972;BME280;64651;47.540;19.088;2024-02-14T06:00:32;101200.44;;;1.68;84.07
75972;BME280;64651;47.540;19.088;2024-02-14T06:05:34;101220.84;;;1.57;84.24
75972;BME280;64651;47.540;19.088;2024-02-14T06:10:37;101220.28;;;1.68;84.38
75972;BME280;64651;47.540;19.088;2024-02-14T06:15:40;101219.00;;;1.64;84.52
75972;BME280;64651;47.540;19.088;2024-02-14T06:20:43;101217.78;;;1.73;84.33
75972;BME280;64651;47.540;19.088;2024-02-14T06:25:45;101234.50;;;1.77;84.43
75972;BME280;64651;47.540;19.088;2024-02-14T06:30:47;101223.66;;;1.77;84.17
75972;BME280;64651;47.540;19.088;2024-02-14T06:35:49;101234.78;;;2.01;83.66
75972;BME280;64651;47.540;19.088;2024-02-14T06:40:52;101232.97;;;2.15;83.00
75972;BME280;64651;47.540;19.088;2024-02-14T06:45:55;101235.31;;;2.25;82.30
75972;BME280;64651;47.540;19.088;2024-02-14T06:50:59;101237.44;;;2.36;81.95
75972;BME280;64651;47.540;19.088;2024-02-14T06:56:01;101246.44;;;2.50;81.29
75972;BME280;64651;47.540;19.088;2024-02-14T07:01:03;101248.75;;;2.53;81.20
75972;BME280;64651;47.540;19.088;2024-02-14T07:06:06;101253.38;;;2.78;80.92
75972;BME280;64651;47.540;19.088;2024-02-14T07:11:08;101249.00;;;2.91;80.48
75972;BME280;64651;47.540;19.088;2024-02-14T07:16:10;101259.44;;;3.13;79.71
75972;BME280;64651;47.540;19.088;2024-02-14T07:21:13;101257.75;;;3.06;79.58
75972;BME280;64651;47.540;19.088;2024-02-14T07:26:15;101268.63;;;3.19;79.30
75972;BME280;64651;47.540;19.088;2024-02-14T07:31:17;101263.84;;;3.34;79.02
75972;BME280;64651;47.540;19.088;2024-02-14T07:36:19;101252.09;;;3.47;78.49
75972;BME280;64651;47.540;19.088;2024-02-14T07:41:23;101259.41;;;3.59;78.00
75972;BME280;64651;47.540;19.088;2024-02-14T07:46:25;101268.09;;;3.88;77.24
75972;BME280;64651;47.540;19.088;2024-02-14T07:51:29;101274.94;;;4.03;76.62
75972;BME280;64651;47.540;19.088;2024-02-14T07:56:32;101282.19;;;4.23;75.82
75972;BME280;64651;47.540;19.088;2024-02-14T08:01:34;101259.50;;;4.35;74.54
75972;BME280;64651;47.540;19.088;2024-02-14T08:06:40;101267.19;;;4.83;72.50
75972;BME280;64651;47.540;19.088;2024-02-14T08:11:42;101274.78;;;5.06;71.39
75972;BME280;64651;47.540;19.088;2024-02-14T08:16:44;101272.81;;;5.38;68.84
75972;BME280;64651;47.540;19.088;2024-02-14T08:21:46;101271.03;;;5.68;66.77
75972;BME280;64651;47.540;19.088;2024-02-14T08:26:49;101285.34;;;6.06;64.35
75972;BME280;64651;47.540;19.088;2024-02-14T08:31:51;101276.59;;;6.34;62.00
75972;BME280;64651;47.540;19.088;2024-02-14T08:36:53;101280.03;;;6.60;60.63
75972;BME280;64651;47.540;19.088;2024-02-14T08:41:55;101281.88;;;6.77;59.57
75972;BME280;64651;47.540;19.088;2024-02-14T08:46:58;101264.31;;;6.85;58.60
75972;BME280;64651;47.540;19.088;2024-02-14T08:52:00;101274.63;;;7.13;58.04
75972;BME280;64651;47.540;19.088;2024-02-14T08:57:03;101288.06;;;7.26;56.25
75972;BME280;64651;47.540;19.088;2024-02-14T09:02:05;101277.37;;;7.36;55.71
75972;BME280;64651;47.540;19.088;2024-02-14T09:07:08;101278.69;;;7.68;55.46
75972;BME280;64651;47.540;19.088;2024-02-14T09:12:13;101279.28;;;7.82;58.23
75972;BME280;64651;47.540;19.088;2024-02-14T09:17:15;101277.63;;;7.93;57.56
75972;BME280;64651;47.540;19.088;2024-02-14T09:22:18;101273.66;;;7.89;55.27
75972;BME280;64651;47.540;19.088;2024-02-14T09:27:23;101273.56;;;7.84;53.13
75972;BME280;64651;47.540;19.088;2024-02-14T09:32:25;101266.03;;;8.42;50.55
75972;BME280;64651;47.540;19.088;2024-02-14T09:37:28;101265.25;;;12.27;45.07
75972;BME280;64651;47.540;19.088;2024-02-14T09:42:38;101245.16;;;16.70;32.14
75972;BME280;64651;47.540;19.088;2024-02-14T09:47:44;101243.31;;;19.66;28.32
75972;BME280;64651;47.540;19.088;2024-02-14T09:52:48;101239.84;;;23.03;25.08
75972;BME280;64651;47.540;19.088;2024-02-14T09:57:54;101233.50;;;22.65;22.98
75972;BME280;64651;47.540;19.088;2024-02-14T10:02:57;101231.94;;;25.33;22.00
75972;BME280;64651;47.540;19.088;2024-02-14T10:07:59;101224.97;;;25.15;21.02
75972;BME280;64651;47.540;19.088;2024-02-14T10:13:04;101229.03;;;23.80;21.09
75972;BME280;64651;47.540;19.088;2024-02-14T10:18:07;101215.06;;;25.21;20.42
75972;BME280;64651;47.540;19.088;2024-02-14T10:23:11;101225.78;;;25.71;19.12
75972;BME280;64651;47.540;19.088;2024-02-14T10:28:15;101214.34;;;25.52;20.02
75972;BME280;64651;47.540;19.088;2024-02-14T10:33:18;101206.63;;;23.59;20.21
75972;BME280;64651;47.540;19.088;2024-02-14T10:38:31;101189.00;;;23.83;20.11
75972;BME280;64651;47.540;19.088;2024-02-14T10:43:40;101194.81;;;27.26;17.70
75972;BME280;64651;47.540;19.088;2024-02-14T10:48:42;101195.66;;;26.06;18.40
75972;BME280;64651;47.540;19.088;2024-02-14T10:53:46;101182.16;;;28.08;17.08
75972;BME280;64651;47.540;19.088;2024-02-14T10:58:52;101171.91;;;28.75;17.04
75972;BME280;64651;47.540;19.088;2024-02-14T11:03:59;101173.31;;;27.02;17.87
75972;BME280;64651;47.540;19.088;2024-02-14T11:09:04;101167.50;;;25.91;19.01
75972;BME280;64651;47.540;19.088;2024-02-14T11:14:19;101156.59;;;25.45;19.32
75972;BME280;64651;47.540;19.088;2024-02-14T11:19:30;101154.47;;;27.71;17.81
75972;BME280;64651;47.540;19.088;2024-02-14T11:24:38;101146.44;;;27.73;17.50
75972;BME280;64651;47.540;19.088;2024-02-14T11:29:41;101150.19;;;28.56;16.95
75972;BME280;64651;47.540;19.088;2024-02-14T11:34:56;101154.47;;;30.28;15.77
75972;BME280;64651;47.540;19.088;2024-02-14T11:40:00;101139.06;;;26.15;18.38
75972;BME280;64651;47.540;19.088;2024-02-14T11:45:03;101126.13;;;28.43;16.13
75972;BME280;64651;47.540;19.088;2024-02-14T11:50:06;101126.81;;;30.90;14.89
75972;BME280;64651;47.540;19.088;2024-02-14T11:55:08;101115.09;;;31.02;14.62
75972;BME280;64651;47.540;19.088;2024-02-14T12:00:11;101129.38;;;27.24;16.30
75972;BME280;64651;47.540;19.088;2024-02-14T12:05:14;101097.13;;;30.05;14.33
75972;BME280;64651;47.540;19.088;2024-02-14T12:10:16;101107.22;;;28.21;15.72
75972;BME280;64651;47.540;19.088;2024-02-14T12:15:19;101111.69;;;29.15;14.98
75972;BME280;64651;47.540;19.088;2024-02-14T12:20:22;101122.19;;;25.68;17.86
75972;BME280;64651;47.540;19.088;2024-02-14T12:25:25;101116.34;;;23.03;20.50
75972;BME280;64651;47.540;19.088;2024-02-14T12:30:47;101122.13;;;18.47;25.37
75972;BME280;64651;47.540;19.088;2024-02-14T12:35:54;101118.25;;;18.35;26.50
75972;BME280;64651;47.540;19.088;2024-02-14T12:40:56;101118.59;;;18.19;26.74
75972;BME280;64651;47.540;19.088;2024-02-14T12:45:59;101122.41;;;16.26;29.66
75972;BME280;64651;47.540;19.088;2024-02-14T12:51:01;101116.25;;;16.10;30.81
75972;BME280;64651;47.540;19.088;2024-02-14T12:56:04;101117.47;;;14.31;33.50
75972;BME280;64651;47.540;19.088;2024-02-14T13:01:07;101108.56;;;13.15;35.72
75972;BME280;64651;47.540;19.088;2024-02-14T13:06:12;101103.28;;;13.29;36.10
75972;BME280;64651;47.540;19.088;2024-02-14T13:11:16;101105.47;;;13.32;36.63
75972;BME280;64651;47.540;19.088;2024-02-14T13:16:20;101109.38;;;12.95;37.97
75972;BME280;64651;47.540;19.088;2024-02-14T13:21:24;101089.62;;;13.58;37.53
75972;BME280;64651;47.540;19.088;2024-02-14T13:26:26;101107.72;;;12.69;39.00
75972;BME280;64651;47.540;19.088;2024-02-14T13:31:30;101108.28;;;12.51;39.71
75972;BME280;64651;47.540;19.088;2024-02-14T13:36:32;101117.81;;;11.88;41.59
75972;BME280;64651;47.540;19.088;2024-02-14T13:41:35;101114.47;;;11.75;42.59
75972;BME280;64651;47.540;19.088;2024-02-14T13:46:44;101112.81;;;11.79;42.70
75972;BME280;64651;47.540;19.088;2024-02-14T13:51:51;101120.41;;;11.52;44.44
75972;BME280;64651;47.540;19.088;2024-02-14T13:56:54;101116.03;;;11.71;44.27
75972;BME280;64651;47.540;19.088;2024-02-14T14:02:00;101118.66;;;11.88;44.14
75972;BME280;64651;47.540;19.088;2024-02-14T14:07:10;101113.88;;;11.73;44.95
75972;BME280;64651;47.540;19.088;2024-02-14T14:12:12;101118.72;;;11.46;45.24
75972;BME280;64651;47.540;19.088;2024-02-14T14:17:14;101113.25;;;11.56;45.24
75972;BME280;64651;47.540;19.088;2024-02-14T14:22:17;101117.69;;;11.62;45.30
75972;BME280;64651;47.540;19.088;2024-02-14T14:27:19;101115.88;;;11.88;45.38
75972;BME280;64651;47.540;19.088;2024-02-14T14:32:23;101113.59;;;11.70;45.71
75972;BME280;64651;47.540;19.088;2024-02-14T14:37:25;101118.78;;;11.61;45.87
75972;BME280;64651;47.540;19.088;2024-02-14T14:42:28;101119.03;;;11.60;46.12
75972;BME280;64651;47.540;19.088;2024-02-14T14:47:30;101117.03;;;11.40;45.53
75972;BME280;64651;47.540;19.088;2024-02-14T14:52:33;101110.94;;;11.33;45.86
75972;BME280;64651;47.540;19.088;2024-02-14T14:57:36;101114.19;;;11.30;46.04
75972;BME280;64651;47.540;19.088;2024-02-14T15:02:43;101115.53;;;11.22;46.10
75972;BME280;64651;47.540;19.088;2024-02-14T15:07:58;101114.50;;;11.33;45.96
75972;BME280;64651;47.540;19.088;2024-02-14T15:13:06;101082.28;;;13.02;42.51
75972;BME280;64651;47.540;19.088;2024-02-14T15:18:11;101109.22;;;17.47;35.03
75972;BME280;64651;47.540;19.088;2024-02-14T15:23:13;101098.16;;;15.46;36.48
75972;BME280;64651;47.540;19.088;2024-02-14T15:28:16;101121.94;;;16.18;36.14
75972;BME280;64651;47.540;19.088;2024-02-14T15:33:28;101122.53;;;13.54;40.78
75972;BME280;64651;47.540;19.088;2024-02-14T15:38:31;101146.06;;;12.40;43.94
75972;BME280;64651;47.540;19.088;2024-02-14T15:43:33;101136.41;;;11.60;45.77
75972;BME280;64651;47.540;19.088;2024-02-14T15:48:58;101135.44;;;10.92;47.63
75972;BME280;64651;47.540;19.088;2024-02-14T16:00:02;101134.06;;;10.31;50.51
75972;BME280;64651;47.540;19.088;2024-02-14T16:10:33;101139.34;;;10.11;52.11
75972;BME280;64651;47.540;19.088;2024-02-14T16:15:40;101113.56;;;9.95;52.22
75972;BME280;64651;47.540;19.088;2024-02-14T16:20:46;101138.66;;;9.99;52.96
75972;BME280;64651;47.540;19.088;2024-02-14T16:31:07;101158.13;;;9.97;53.49
75972;BME280;64651;47.540;19.088;2024-02-14T16:36:09;101158.19;;;10.02;54.05
75972;BME280;64651;47.540;19.088;2024-02-14T16:41:12;101166.13;;;9.99;53.94
75972;BME280;64651;47.540;19.088;2024-02-14T16:46:15;101150.81;;;9.81;54.13
75972;BME280;64651;47.540;19.088;2024-02-14T16:51:20;101167.28;;;9.81;54.60
75972;BME280;64651;47.540;19.088;2024-02-14T16:56:22;101152.28;;;9.67;54.95
75972;BME280;64651;47.540;19.088;2024-02-14T17:01:26;101168.22;;;9.70;55.21
75972;BME280;64651;47.540;19.088;2024-02-14T17:06:32;101175.91;;;9.68;55.58
75972;BME280;64651;47.540;19.088;2024-02-14T17:11:35;101172.59;;;9.66;55.53
75972;BME280;64651;47.540;19.088;2024-02-14T17:16:37;101185.31;;;9.72;55.53
75972;BME280;64651;47.540;19.088;2024-02-14T17:21:43;101188.00;;;9.67;55.70
75972;BME280;64651;47.540;19.088;2024-02-14T17:26:48;101186.91;;;9.68;55.57
75972;BME280;64651;47.540;19.088;2024-02-14T17:31:51;101193.41;;;9.62;55.55
75972;BME280;64651;47.540;19.088;2024-02-14T17:36:53;101186.25;;;9.61;55.87
75972;BME280;64651;47.540;19.088;2024-02-14T17:41:55;101191.62;;;9.51;55.98
75972;BME280;64651;47.540;19.088;2024-02-14T17:46:58;101194.09;;;9.52;56.30
75972;BME280;64651;47.540;19.088;2024-02-14T17:52:00;101189.94;;;9.50;56.29
75972;BME280;64651;47.540;19.088;2024-02-14T17:57:05;101188.47;;;9.42;56.31
75972;BME280;64651;47.540;19.088;2024-02-14T18:02:07;101189.78;;;9.40;56.73
75972;BME280;64651;47.540;19.088;2024-02-14T18:07:11;101189.06;;;9.27;56.55
75972;BME280;64651;47.540;19.088;2024-02-14T18:12:14;101194.75;;;9.21;56.94
75972;BME280;64651;47.540;19.088;2024-02-14T18:17:17;101194.56;;;9.11;57.60
75972;BME280;64651;47.540;19.088;2024-02-14T18:22:19;101197.56;;;9.09;56.87
75972;BME280;64651;47.540;19.088;2024-02-14T18:27:22;101196.16;;;9.07;56.63
75972;BME280;64651;47.540;19.088;2024-02-14T18:32:28;101186.66;;;8.98;57.07
75972;BME280;64651;47.540;19.088;2024-02-14T18:37:30;101200.72;;;8.84;56.91
75972;BME280;64651;47.540;19.088;2024-02-14T18:42:33;101194.81;;;8.76;57.24
75972;BME280;64651;47.540;19.088;2024-02-14T18:47:35;101193.16;;;8.91;56.69
75972;BME280;64651;47.540;19.088;2024-02-14T18:52:37;101203.22;;;8.86;56.81
75972;BME280;64651;47.540;19.088;2024-02-14T18:57:40;101200.91;;;8.94;56.71
75972;BME280;64651;47.540;19.088;2024-02-14T19:02:42;101202.13;;;8.87;56.95
75972;BME280;64651;47.540;19.088;2024-02-14T19:07:46;101189.56;;;8.91;56.59
75972;BME280;64651;47.540;19.088;2024-02-14T19:12:49;101200.16;;;8.99;56.25
75972;BME280;64651;47.540;19.088;2024-02-14T19:17:52;101192.44;;;8.96;56.36
75972;BME280;64651;47.540;19.088;2024-02-14T19:22:55;101195.06;;;8.91;55.92
75972;BME280;64651;47.540;19.088;2024-02-14T19:27:57;101168.53;;;8.80;56.27
75972;BME280;64651;47.540;19.088;2024-02-14T19:33:00;101194.22;;;8.90;56.35
75972;BME280;64651;47.540;19.088;2024-02-14T19:38:05;101198.31;;;8.71;57.02
75972;BME280;64651;47.540;19.088;2024-02-14T19:43:09;101197.03;;;8.62;57.33
75972;BME280;64651;47.540;19.088;2024-02-14T19:48:24;101208.75;;;8.58;57.36
75972;BME280;64651;47.540;19.088;2024-02-14T19:53:32;101208.66;;;8.52;57.97
75972;BME280;64651;47.540;19.088;2024-02-14T19:58:37;101205.25;;;8.45;58.40
75972;BME280;64651;47.540;19.088;2024-02-14T20:03:44;101206.31;;;8.44;58.70
75972;BME280;64651;47.540;19.088;2024-02-14T20:08:47;101211.81;;;8.44;58.55
75972;BME280;64651;47.540;19.088;2024-02-14T20:13:51;101212.63;;;8.45;58.75
75972;BME280;64651;47.540;19.088;2024-02-14T20:18:54;101211.88;;;8.49;58.51
75972;BME280;64651;47.540;19.088;2024-02-14T20:23:57;101214.06;;;8.47;58.80
75972;BME280;64651;47.540;19.088;2024-02-14T20:29:00;101210.13;;;8.43;59.21
75972;BME280;64651;47.540;19.088;2024-02-14T20:34:03;101206.81;;;8.30;60.19
75972;BME280;64651;47.540;19.088;2024-02-14T20:39:09;101209.91;;;8.05;61.06
75972;BME280;64651;47.540;19.088;2024-02-14T20:44:12;101207.59;;;7.73;63.20
75972;BME280;64651;47.540;19.088;2024-02-14T20:49:14;101202.87;;;7.34;64.39
75972;BME280;64651;47.540;19.088;2024-02-14T20:54:17;101200.72;;;7.01;65.93
75972;BME280;64651;47.540;19.088;2024-02-14T20:59:20;101208.75;;;6.73;66.22
75972;BME280;64651;47.540;19.088;2024-02-14T21:04:22;101202.53;;;6.54;66.78
75972;BME280;64651;47.540;19.088;2024-02-14T21:09:25;101201.47;;;6.25;68.03
75972;BME280;64651;47.540;19.088;2024-02-14T21:14:30;101211.25;;;6.33;68.53
75972;BME280;64651;47.540;19.088;2024-02-14T21:19:36;101204.34;;;6.30;69.35
75972;BME280;64651;47.540;19.088;2024-02-14T21:24:38;101211.16;;;6.09;70.38
75972;BME280;64651;47.540;19.088;2024-02-14T21:29:43;101207.38;;;5.92;71.12
75972;BME280;64651;47.540;19.088;2024-02-14T21:34:48;101205.38;;;5.81;71.80
75972;BME280;64651;47.540;19.088;2024-02-14T21:39:50;101199.03;;;5.87;71.59
75972;BME280;64651;47.540;19.088;2024-02-14T21:44:53;101203.00;;;5.91;72.14
75972;BME280;64651;47.540;19.088;2024-02-14T21:49:55;101194.31;;;5.94;71.73
75972;BME280;64651;47.540;19.088;2024-02-14T21:55:01;101203.56;;;5.93;72.52
75972;BME280;64651;47.540;19.088;2024-02-14T22:00:04;101192.06;;;5.91;72.42
75972;BME280;64651;47.540;19.088;2024-02-14T22:05:15;101189.13;;;6.04;72.09
75972;BME280;64651;47.540;19.088;2024-02-14T22:10:24;101179.97;;;5.99;72.49
75972;BME280;64651;47.540;19.088;2024-02-14T22:21:02;101191.12;;;6.57;70.83
75972;BME280;64651;47.540;19.088;2024-02-14T22:26:37;101192.53;;;7.01;69.53
75972;BME280;64651;47.540;19.088;2024-02-14T22:31:41;101198.84;;;7.25;68.59
75972;BME280;64651;47.540;19.088;2024-02-14T22:36:44;101196.78;;;7.55;67.88
75972;BME280;64651;47.540;19.088;2024-02-14T22:41:49;101210.34;;;7.73;66.81
75972;BME280;64651;47.540;19.088;2024-02-14T22:46:52;101218.78;;;7.84;66.30
75972;BME280;64651;47.540;19.088;2024-02-14T22:51:54;101205.41;;;7.99;66.38
75972;BME280;64651;47.540;19.088;2024-02-14T22:56:57;101210.34;;;8.13;65.73
75972;BME280;64651;47.540;19.088;2024-02-14T23:01:59;101206.53;;;8.14;65.39
75972;BME280;64651;47.540;19.088;2024-02-14T23:07:01;101206.25;;;8.28;64.75
75972;BME280;64651;47.540;19.088;2024-02-14T23:12:04;101210.88;;;8.39;65.14
75972;BME280;64651;47.540;19.088;2024-02-14T23:17:06;101207.47;;;8.48;64.35
75972;BME280;64651;47.540;19.088;2024-02-14T23:22:09;101200.84;;;8.61;63.53
75972;BME280;64651;47.540;19.088;2024-02-14T23:27:11;101195.53;;;8.54;65.96
75972;BME280;64651;47.540;19.088;2024-02-14T23:32:15;101180.16;;;8.53;65.89
75972;BME280;64651;47.540;19.088;2024-02-14T23:37:19;101175.00;;;8.57;66.11
75972;BME280;64651;47.540;19.088;2024-02-14T23:42:21;101179.28;;;8.81;65.16
75972;BME280;64651;47.540;19.088;2024-02-14T23:47:27;101185.50;;;8.77;66.00
75972;BME280;64651;47.540;19.088;2024-02-14T23:52:30;101175.16;;;8.50;67.04
75972;BME280;64651;47.540;19.088;2024-02-14T23:57:34;101185.53;;;8.48;66.48
